French Navy Ship — SO — position and weather

sailwx.info

Track history (hours):
 
Tides and Currents Weather Stations Pressure Air Temp Water Temp Dewpoint Dewpoint Depression Visibility Wind Speed Wind Dir Waves Ship Positions

French Navy Ship

Last reported at 2017-Oct-16 07:52 UTC. Time now 2017-Nov-22 22:08 UTC.
Position N 48°22' W 004°30'.
Warning: this ship's position is 37 days out of date.

Length 158 m.

Type: Military. MMSI: 228779000.

Date/timePositionNaut miles runAvg speedWind from/ knotsBaromVisibWave heightAir tempDewpointWater temp
2017-Oct-16 07:52N 48°22' W 004°30'1 2.1
2017-Oct-16 07:30N 48°22' W 004°29'2 4.4
2017-Oct-16 07:00N 48°21' W 004°32'815.5
2017-Oct-16 06:30N 48°18' W 004°43'816.0
2017-Oct-16 06:00N 48°14' W 004°53'4 7.2
2017-Oct-16 05:30N 48°11' W 004°56'714.3
2017-Oct-16 05:01N 48°16' W 005°03'915.3
2017-Oct-16 04:26N 48°21' W 005°15'815.0
2017-Oct-16 03:54N 48°25' W 005°25'614.8
2017-Oct-16 03:29N 48°27' W 005°33'2614.4
2017-Oct-16 01:39N 48°43' W 006°06'318.2
2017-Oct-16 01:29N 48°46' W 006°05'918.2
2017-Oct-16 01:00N 48°55' W 006°05'918.3
2017-Oct-16 00:30N 49°04' W 006°05'918.4
2017-Oct-16 00:00N 49°13' W 006°04'918.3
2017-Oct-15 23:30N 49°22' W 006°03'918.7
2017-Oct-15 23:01N 49°31' W 006°03'1718.9
2017-Oct-15 22:08N 49°48' W 006°01'219.0
2017-Oct-15 22:00N 49°50' W 006°01'1019.1
2017-Oct-15 21:28N 50°01' W 006°01'919.3
2017-Oct-15 21:00N 50°10' W 006°01'1019.6
2017-Oct-15 20:29N 50°20' W 006°01'1119.8
2017-Oct-15 19:56N 50°31' W 006°01'1019.8
2017-Oct-15 19:27N 50°40' W 006°01'1019.8
2017-Oct-15 18:57N 50°50' W 006°01'919.4
2017-Oct-15 18:29N 50°59' W 006°01'7118.0
2017-Oct-15 14:33N 52°09' W 005°47'1017.6
2017-Oct-15 13:57N 52°20' W 005°44'818.8
2017-Oct-15 13:31N 52°28' W 005°41'5517.9
2017-Oct-15 10:25N 53°23' W 005°54'715.3
2017-Oct-15 09:59N 53°20' W 006°04'5 9.5
2017-Oct-15 09:30N 53°21' W 006°11'1 2.2
2017-Oct-15 08:59N 53°21' W 006°13'0 0.0
2017-Oct-15 08:30N 53°21' W 006°13'0 0.0
2017-Oct-15 07:58N 53°21' W 006°13'0 0.0
2017-Oct-13 07:12N 53°21' W 006°13'0 0.1
2017-Oct-13 07:00N 53°21' W 006°13'1 2.8
2017-Oct-13 06:29N 53°21' W 006°11'5 9.8
2017-Oct-13 06:00N 53°21' W 006°03'176 8.1
2017-Oct-12 08:18N 50°25' W 005°51'515.0
2017-Oct-12 07:57N 50°20' W 005°53'715.4
2017-Oct-12 07:30N 50°13' W 005°52'23852.4
2017-Oct-12 02:58N 54°09' W 005°10'715.0
2017-Oct-12 02:30N 54°16' W 005°09'815.2
2017-Oct-12 02:01N 54°24' W 005°09'815.3
2017-Oct-12 01:31N 54°31' W 005°07'816.1
2017-Oct-12 01:01N 54°38' W 005°14'917.0
2017-Oct-12 00:31N 54°45' W 005°22'917.1
2017-Oct-12 00:00N 54°53' W 005°30'2416.8
2017-Oct-11 22:34N 55°12' W 005°55'116.9
2017-Oct-11 22:30N 55°13' W 005°57'816.3
2017-Oct-11 22:00N 55°20' W 006°05'714.4
2017-Oct-11 21:30N 55°22' W 006°17'815.0
2017-Oct-11 21:00N 55°23' W 006°30'714.0
2017-Oct-11 20:30N 55°29' W 006°37'714.4
2017-Oct-11 20:00N 55°35' W 006°44'612.8
2017-Oct-11 19:30N 55°40' W 006°50'612.3
2017-Oct-11 19:01N 55°46' W 006°55'  
Track history (hours):
 
Tides and Currents Weather Stations Pressure Air Temp Water Temp Dewpoint Dewpoint Depression Visibility Wind Speed Wind Dir Waves Ship Positions

French Navy Ship

Last reported at 2017-Oct-16 07:52 UTC. Time now 2017-Nov-22 22:08 UTC.
Position N 48°22' W 004°30'.
Warning: this ship's position is 37 days out of date.

Length 158 m.

Type: Military. MMSI: 228779000.

Date/timePositionNaut miles runAvg speedWind from/ knotsBaromVisibWave heightAir tempDewpointWater temp
2017-Oct-16 07:52N 48°22' W 004°30'1 2.1
2017-Oct-16 07:30N 48°22' W 004°29'2 4.4
2017-Oct-16 07:00N 48°21' W 004°32'815.5
2017-Oct-16 06:30N 48°18' W 004°43'816.0
2017-Oct-16 06:00N 48°14' W 004°53'4 7.2
2017-Oct-16 05:30N 48°11' W 004°56'714.3
2017-Oct-16 05:01N 48°16' W 005°03'915.3
2017-Oct-16 04:26N 48°21' W 005°15'815.0
2017-Oct-16 03:54N 48°25' W 005°25'614.8
2017-Oct-16 03:29N 48°27' W 005°33'2614.4
2017-Oct-16 01:39N 48°43' W 006°06'318.2
2017-Oct-16 01:29N 48°46' W 006°05'918.2
2017-Oct-16 01:00N 48°55' W 006°05'918.3
2017-Oct-16 00:30N 49°04' W 006°05'918.4
2017-Oct-16 00:00N 49°13' W 006°04'918.3
2017-Oct-15 23:30N 49°22' W 006°03'918.7
2017-Oct-15 23:01N 49°31' W 006°03'1718.9
2017-Oct-15 22:08N 49°48' W 006°01'219.0
2017-Oct-15 22:00N 49°50' W 006°01'1019.1
2017-Oct-15 21:28N 50°01' W 006°01'919.3
2017-Oct-15 21:00N 50°10' W 006°01'1019.6
2017-Oct-15 20:29N 50°20' W 006°01'1119.8
2017-Oct-15 19:56N 50°31' W 006°01'1019.8
2017-Oct-15 19:27N 50°40' W 006°01'1019.8
2017-Oct-15 18:57N 50°50' W 006°01'919.4
2017-Oct-15 18:29N 50°59' W 006°01'7118.0
2017-Oct-15 14:33N 52°09' W 005°47'1017.6
2017-Oct-15 13:57N 52°20' W 005°44'818.8
2017-Oct-15 13:31N 52°28' W 005°41'5517.9
2017-Oct-15 10:25N 53°23' W 005°54'715.3
2017-Oct-15 09:59N 53°20' W 006°04'5 9.5
2017-Oct-15 09:30N 53°21' W 006°11'1 2.2
2017-Oct-15 08:59N 53°21' W 006°13'0 0.0
2017-Oct-15 08:30N 53°21' W 006°13'0 0.0
2017-Oct-15 07:58N 53°21' W 006°13'0 0.0
2017-Oct-13 07:12N 53°21' W 006°13'0 0.1
2017-Oct-13 07:00N 53°21' W 006°13'1 2.8
2017-Oct-13 06:29N 53°21' W 006°11'5 9.8
2017-Oct-13 06:00N 53°21' W 006°03'176 8.1
2017-Oct-12 08:18N 50°25' W 005°51'515.0
2017-Oct-12 07:57N 50°20' W 005°53'715.4
2017-Oct-12 07:30N 50°13' W 005°52'23852.4
2017-Oct-12 02:58N 54°09' W 005°10'715.0
2017-Oct-12 02:30N 54°16' W 005°09'815.2
2017-Oct-12 02:01N 54°24' W 005°09'815.3
2017-Oct-12 01:31N 54°31' W 005°07'816.1
2017-Oct-12 01:01N 54°38' W 005°14'917.0
2017-Oct-12 00:31N 54°45' W 005°22'917.1
2017-Oct-12 00:00N 54°53' W 005°30'2416.8
2017-Oct-11 22:34N 55°12' W 005°55'116.9
2017-Oct-11 22:30N 55°13' W 005°57'816.3
2017-Oct-11 22:00N 55°20' W 006°05'714.4
2017-Oct-11 21:30N 55°22' W 006°17'815.0
2017-Oct-11 21:00N 55°23' W 006°30'714.0
2017-Oct-11 20:30N 55°29' W 006°37'714.4
2017-Oct-11 20:00N 55°35' W 006°44'612.8
2017-Oct-11 19:30N 55°40' W 006°50'612.3
2017-Oct-11 19:01N 55°46' W 006°55'  

Dump ship's entire track history